createdAt,value
2022-10-09T00:00:21.133Z,100
2022-10-09T00:01:21.127Z,100
2022-10-09T00:02:21.208Z,100
2022-10-09T00:03:21.113Z,100
2022-10-09T00:04:21.132Z,100
2022-10-09T00:05:21.140Z,100
2022-10-09T00:06:21.138Z,100
2022-10-09T00:07:21.136Z,100
2022-10-09T00:08:21.133Z,100
2022-10-09T00:09:21.129Z,100
2022-10-09T00:10:21.140Z,100
2022-10-09T00:11:21.124Z,100
2022-10-09T00:12:21.132Z,100
2022-10-09T00:13:21.134Z,100
2022-10-09T00:14:21.132Z,100
2022-10-09T00:15:21.138Z,100
2022-10-09T00:16:21.214Z,100
2022-10-09T00:17:21.122Z,100
2022-10-09T00:18:21.207Z,100
2022-10-09T00:19:21.258Z,100
2022-10-09T00:20:21.130Z,100
2022-10-09T00:21:21.137Z,100
2022-10-09T00:22:21.125Z,100
2022-10-09T00:23:21.130Z,100
2022-10-09T00:24:21.132Z,100
2022-10-09T00:25:21.131Z,100
2022-10-09T00:26:21.135Z,100
2022-10-09T00:27:21.123Z,100
2022-10-09T00:28:21.158Z,100
2022-10-09T00:29:21.262Z,100
2022-10-09T00:30:21.144Z,100
2022-10-09T00:31:21.177Z,100
2022-10-09T00:32:21.089Z,100
2022-10-09T00:33:21.125Z,100
2022-10-09T00:34:21.252Z,100
2022-10-09T00:35:21.120Z,100
2022-10-09T00:36:21.336Z,100
2022-10-09T00:37:21.120Z,100
2022-10-09T00:38:21.424Z,100
2022-10-09T00:39:21.220Z,100
2022-10-09T00:40:21.267Z,100
2022-10-09T00:41:21.326Z,100
2022-10-09T00:42:21.176Z,100
2022-10-09T00:43:21.424Z,100
2022-10-09T00:44:21.142Z,100
2022-10-09T00:45:21.126Z,100
2022-10-09T00:46:21.160Z,100
2022-10-09T00:47:21.126Z,100
2022-10-09T00:48:21.133Z,100
2022-10-09T00:49:21.120Z,100
2022-10-09T00:50:21.142Z,100
2022-10-09T00:51:21.134Z,100
2022-10-09T00:52:21.134Z,100
2022-10-09T00:53:21.214Z,100
2022-10-09T00:54:21.128Z,100
2022-10-09T00:55:21.112Z,100
2022-10-09T00:56:21.118Z,100
2022-10-09T00:57:21.125Z,100
2022-10-09T00:58:21.132Z,100
2022-10-09T00:59:21.129Z,100
2022-10-09T01:00:21.132Z,100
2022-10-09T01:01:21.224Z,100
2022-10-09T01:02:21.159Z,100
2022-10-09T01:03:21.266Z,100
2022-10-09T01:04:21.343Z,100
2022-10-09T01:05:21.128Z,100
2022-10-09T01:06:21.131Z,100
2022-10-09T01:07:21.122Z,100
2022-10-09T01:08:21.138Z,100
2022-10-09T01:09:21.126Z,100
2022-10-09T01:10:21.131Z,100
2022-10-09T01:11:21.126Z,100
2022-10-09T01:12:21.126Z,100
2022-10-09T01:13:21.148Z,100
2022-10-09T01:14:21.139Z,100
2022-10-09T01:15:21.116Z,100
2022-10-09T01:16:26.236Z,100
2022-10-09T01:17:21.116Z,100
2022-10-09T01:18:21.326Z,100
2022-10-09T01:19:21.503Z,100
2022-10-09T01:20:21.517Z,100
2022-10-09T01:21:20.784Z,100
2022-10-09T01:22:21.004Z,100
2022-10-09T01:23:21.398Z,100
2022-10-09T01:24:21.625Z,100
2022-10-09T01:25:21.252Z,100
2022-10-09T01:26:21.814Z,100
2022-10-09T01:27:21.792Z,100
2022-10-09T01:28:21.167Z,100
2022-10-09T01:29:21.130Z,100
2022-10-09T01:30:21.124Z,100
2022-10-09T01:31:21.161Z,100
2022-10-09T01:32:21.150Z,100
2022-10-09T01:33:21.138Z,100
2022-10-09T01:34:21.155Z,100
2022-10-09T01:35:21.140Z,100
2022-10-09T01:36:21.282Z,100
2022-10-09T01:37:21.125Z,100
2022-10-09T01:38:21.121Z,100
2022-10-09T01:39:21.140Z,100
2022-10-09T01:40:21.154Z,100
2022-10-09T01:41:21.131Z,100
2022-10-09T01:42:21.125Z,100
2022-10-09T01:43:21.105Z,100
2022-10-09T01:44:21.132Z,100
2022-10-09T01:45:21.162Z,100
2022-10-09T01:46:21.197Z,100
2022-10-09T01:47:21.144Z,100
2022-10-09T01:48:21.120Z,100
2022-10-09T01:49:21.206Z,100
2022-10-09T01:50:21.457Z,100
2022-10-09T01:51:21.112Z,100
2022-10-09T01:52:21.385Z,100
2022-10-09T01:53:21.312Z,100
2022-10-09T01:54:21.579Z,100
2022-10-09T01:55:21.302Z,100
2022-10-09T01:56:21.529Z,100
2022-10-09T01:57:21.714Z,100
2022-10-09T01:58:21.981Z,100
2022-10-09T01:59:22.946Z,100
2022-10-09T02:00:21.402Z,100
2022-10-09T02:01:21.521Z,100
2022-10-09T02:02:21.453Z,100
2022-10-09T02:03:21.668Z,100
2022-10-09T02:04:21.337Z,100
2022-10-09T02:05:21.123Z,100
2022-10-09T02:06:21.134Z,100
2022-10-09T02:07:21.184Z,100
2022-10-09T02:08:21.728Z,100
2022-10-09T02:09:21.092Z,100
2022-10-09T02:10:21.289Z,100
2022-10-09T02:11:21.463Z,100
2022-10-09T02:12:21.808Z,100
2022-10-09T02:13:21.262Z,100
2022-10-09T02:14:21.390Z,100
2022-10-09T02:15:21.328Z,100
2022-10-09T02:16:21.234Z,100
2022-10-09T02:17:21.906Z,100
2022-10-09T02:18:21.651Z,100
2022-10-09T02:19:21.388Z,100
2022-10-09T02:20:22.215Z,100
2022-10-09T02:21:21.272Z,100
2022-10-09T02:22:21.108Z,100
2022-10-09T02:23:21.285Z,100
2022-10-09T02:24:21.152Z,100
2022-10-09T02:25:21.446Z,100
2022-10-09T02:26:21.137Z,100
2022-10-09T02:27:21.136Z,100
2022-10-09T02:28:21.217Z,100
2022-10-09T02:29:21.523Z,100
2022-10-09T02:30:21.276Z,100
2022-10-09T02:31:21.197Z,100
2022-10-09T02:32:21.344Z,100
2022-10-09T02:33:21.114Z,100
2022-10-09T02:34:21.130Z,100
2022-10-09T02:35:21.194Z,100
2022-10-09T02:36:21.442Z,100
2022-10-09T02:37:21.141Z,100
2022-10-09T02:38:21.147Z,100
2022-10-09T02:39:21.165Z,100
2022-10-09T02:40:21.143Z,100
2022-10-09T02:41:21.143Z,100
2022-10-09T02:42:21.124Z,100
2022-10-09T02:43:21.128Z,100
2022-10-09T02:44:21.126Z,100
2022-10-09T02:45:21.129Z,100
2022-10-09T02:46:21.163Z,100
2022-10-09T02:47:21.126Z,100
2022-10-09T02:48:21.134Z,100
2022-10-09T02:49:21.137Z,100
2022-10-09T02:50:21.137Z,100
2022-10-09T02:51:21.142Z,100
2022-10-09T02:52:21.150Z,100
2022-10-09T02:53:21.131Z,100
2022-10-09T02:54:21.126Z,100
2022-10-09T02:55:21.138Z,100
2022-10-09T02:56:21.131Z,100
2022-10-09T02:57:21.144Z,100
2022-10-09T02:58:21.137Z,100
2022-10-09T02:59:21.142Z,100
2022-10-09T03:00:21.142Z,100
2022-10-09T03:01:21.183Z,100
2022-10-09T03:02:21.217Z,100
2022-10-09T03:03:21.148Z,100
2022-10-09T03:04:21.124Z,100
2022-10-09T03:05:21.127Z,100
2022-10-09T03:06:21.139Z,100
2022-10-09T03:07:21.125Z,100
2022-10-09T03:08:21.151Z,100
2022-10-09T03:09:21.139Z,100
2022-10-09T03:10:21.129Z,100
2022-10-09T03:11:21.141Z,100
2022-10-09T03:12:21.127Z,100
2022-10-09T03:13:21.135Z,100
2022-10-09T03:14:21.120Z,100
2022-10-09T03:15:21.127Z,100
2022-10-09T03:16:21.174Z,100
2022-10-09T03:17:21.132Z,100
2022-10-09T03:18:21.136Z,100
2022-10-09T03:19:21.138Z,100
2022-10-09T03:20:21.142Z,100
2022-10-09T03:21:21.141Z,100
2022-10-09T03:22:21.151Z,100
2022-10-09T03:23:21.144Z,100
2022-10-09T03:24:21.152Z,100
2022-10-09T03:25:21.140Z,100
2022-10-09T03:26:21.134Z,100
2022-10-09T03:27:21.127Z,100
2022-10-09T03:28:21.166Z,100
2022-10-09T03:29:21.142Z,100
2022-10-09T03:30:21.140Z,100
2022-10-09T03:31:50.319Z,100
2022-10-09T03:32:21.155Z,100
2022-10-09T03:33:21.128Z,100
2022-10-09T03:34:21.133Z,100
2022-10-09T03:35:21.227Z,100
2022-10-09T03:36:21.132Z,100
2022-10-09T03:37:21.124Z,100
2022-10-09T03:38:21.120Z,100
2022-10-09T03:39:21.110Z,100
2022-10-09T03:40:21.111Z,100
2022-10-09T03:41:21.115Z,100
2022-10-09T03:42:21.176Z,100
2022-10-09T03:43:21.139Z,100
2022-10-09T03:44:21.268Z,100
2022-10-09T03:45:21.105Z,100
2022-10-09T03:46:21.473Z,100
2022-10-09T03:47:21.162Z,100
2022-10-09T03:48:21.119Z,100
2022-10-09T03:49:21.207Z,100
2022-10-09T03:50:21.129Z,100
2022-10-09T03:51:21.349Z,100
2022-10-09T03:52:21.131Z,100
2022-10-09T03:53:21.427Z,100
2022-10-09T03:54:21.266Z,100
2022-10-09T03:55:21.138Z,100
2022-10-09T03:56:21.134Z,100
2022-10-09T03:57:21.257Z,100
2022-10-09T03:58:21.236Z,100
2022-10-09T03:59:21.175Z,100
2022-10-09T04:00:21.119Z,100
2022-10-09T04:01:21.186Z,100
2022-10-09T04:02:21.221Z,100
2022-10-09T04:03:21.123Z,100
2022-10-09T04:04:21.132Z,100
2022-10-09T04:05:21.145Z,100
2022-10-09T04:06:21.137Z,100
2022-10-09T04:07:21.177Z,100
2022-10-09T04:08:21.142Z,100
2022-10-09T04:09:21.139Z,100
2022-10-09T04:10:21.121Z,100
2022-10-09T04:11:21.122Z,100
2022-10-09T04:12:21.143Z,100
2022-10-09T04:13:21.143Z,100
2022-10-09T04:14:21.131Z,100
2022-10-09T04:15:21.126Z,100
2022-10-09T04:16:21.167Z,100
2022-10-09T04:17:21.134Z,100
2022-10-09T04:18:21.142Z,100
2022-10-09T04:19:21.133Z,100
2022-10-09T04:20:21.363Z,100
2022-10-09T04:21:21.122Z,100
2022-10-09T04:22:21.115Z,100
2022-10-09T04:23:21.146Z,100
2022-10-09T04:24:21.125Z,100
2022-10-09T04:25:21.124Z,100
2022-10-09T04:26:21.117Z,100
2022-10-09T04:27:21.136Z,100
2022-10-09T04:28:21.151Z,100
2022-10-09T04:29:21.113Z,100
2022-10-09T04:30:21.163Z,100
2022-10-09T04:31:21.512Z,100
2022-10-09T04:32:21.112Z,100
2022-10-09T04:33:21.143Z,100
2022-10-09T04:34:21.566Z,100
2022-10-09T04:35:21.419Z,100
2022-10-09T04:36:20.768Z,100
2022-10-09T04:37:20.954Z,100
2022-10-09T04:38:21.366Z,100
2022-10-09T04:39:21.561Z,100
2022-10-09T04:40:21.406Z,100
2022-10-09T04:41:21.754Z,100
2022-10-09T04:42:22.003Z,100
2022-10-09T04:43:21.124Z,100
2022-10-09T04:44:21.145Z,100
2022-10-09T04:45:21.136Z,100
2022-10-09T04:46:21.127Z,100
2022-10-09T04:47:21.132Z,100
2022-10-09T04:48:21.138Z,100
2022-10-09T04:49:21.136Z,100
2022-10-09T04:50:21.141Z,100
2022-10-09T04:51:21.172Z,100
2022-10-09T04:52:21.211Z,100
2022-10-09T04:53:21.130Z,100
2022-10-09T04:54:21.135Z,100
2022-10-09T04:55:21.145Z,100
2022-10-09T04:56:21.172Z,100
2022-10-09T04:57:21.117Z,100
2022-10-09T04:58:21.250Z,100
2022-10-09T04:59:21.139Z,100
2022-10-09T05:00:21.257Z,100
2022-10-09T05:01:21.727Z,100
2022-10-09T05:02:21.353Z,100
2022-10-09T05:03:21.154Z,100
2022-10-09T05:04:21.657Z,100
2022-10-09T05:05:21.184Z,100
2022-10-09T05:06:21.461Z,100
2022-10-09T05:07:21.218Z,100
2022-10-09T05:08:21.534Z,100
2022-10-09T05:09:21.771Z,100
2022-10-09T05:10:21.128Z,100
2022-10-09T05:11:21.784Z,100
2022-10-09T05:12:21.173Z,100
2022-10-09T05:13:21.121Z,100
2022-10-09T05:14:21.145Z,100
2022-10-09T05:15:21.151Z,100
2022-10-09T05:16:21.477Z,100
2022-10-09T05:17:25.234Z,100
2022-10-09T05:18:21.274Z,100
2022-10-09T05:19:21.306Z,100
2022-10-09T05:20:21.282Z,100
2022-10-09T05:21:21.108Z,100
2022-10-09T05:22:21.395Z,100
2022-10-09T05:23:21.579Z,100
2022-10-09T05:24:21.672Z,100
2022-10-09T05:25:21.331Z,100
2022-10-09T05:26:21.446Z,100
2022-10-09T05:27:21.733Z,100
2022-10-09T05:28:21.541Z,100
2022-10-09T05:29:21.497Z,100
2022-10-09T05:30:21.137Z,100
2022-10-09T05:31:21.416Z,100
2022-10-09T05:32:21.582Z,100
2022-10-09T05:33:21.207Z,100
2022-10-09T05:34:21.232Z,100
2022-10-09T05:35:21.391Z,100
2022-10-09T05:36:21.810Z,100
2022-10-09T05:37:21.112Z,100
2022-10-09T05:38:21.271Z,100
2022-10-09T05:39:21.119Z,100
2022-10-09T05:40:23.631Z,100
2022-10-09T05:41:21.144Z,100
2022-10-09T05:42:21.138Z,100
2022-10-09T05:43:21.432Z,100
2022-10-09T05:44:21.146Z,100
2022-10-09T05:45:21.273Z,100
2022-10-09T05:46:21.185Z,100
2022-10-09T05:47:21.518Z,100
2022-10-09T05:48:21.126Z,100
2022-10-09T05:49:21.337Z,100
2022-10-09T05:50:21.129Z,100
2022-10-09T05:51:21.128Z,100
2022-10-09T05:52:21.127Z,100
2022-10-09T05:53:21.132Z,100
2022-10-09T05:54:21.130Z,100
2022-10-09T05:55:21.132Z,100
2022-10-09T05:56:21.255Z,100
2022-10-09T05:57:21.134Z,100
2022-10-09T05:58:21.146Z,100
2022-10-09T05:59:21.133Z,100
2022-10-09T06:00:21.138Z,100
2022-10-09T06:01:21.195Z,100
2022-10-09T06:02:21.179Z,100
2022-10-09T06:03:21.146Z,100
2022-10-09T06:04:21.130Z,100
2022-10-09T06:05:21.135Z,100
2022-10-09T06:06:21.137Z,100
2022-10-09T06:07:21.139Z,100
2022-10-09T06:08:21.147Z,100
2022-10-09T06:09:21.122Z,100
2022-10-09T06:10:21.142Z,100
2022-10-09T06:11:21.132Z,100
2022-10-09T06:12:21.123Z,100
2022-10-09T06:13:21.142Z,100
2022-10-09T06:14:21.127Z,100
2022-10-09T06:15:21.134Z,100
2022-10-09T06:16:21.159Z,100
2022-10-09T06:17:21.149Z,100
2022-10-09T06:18:21.134Z,100
2022-10-09T06:19:21.135Z,100
2022-10-09T06:20:21.251Z,100
2022-10-09T06:21:21.141Z,100
2022-10-09T06:22:21.142Z,100
2022-10-09T06:23:21.127Z,100
2022-10-09T06:24:28.069Z,100
2022-10-09T06:25:21.136Z,100
2022-10-09T06:26:21.140Z,100
2022-10-09T06:27:21.139Z,100
2022-10-09T06:28:21.202Z,100
2022-10-09T06:29:21.136Z,100
2022-10-09T06:30:21.250Z,100
2022-10-09T06:31:21.205Z,100
2022-10-09T06:32:21.127Z,100
2022-10-09T06:33:21.152Z,100
2022-10-09T06:34:21.135Z,100
2022-10-09T06:35:21.125Z,100
2022-10-09T06:36:21.133Z,100
2022-10-09T06:37:21.153Z,100
2022-10-09T06:38:21.169Z,100
2022-10-09T06:39:21.213Z,100
2022-10-09T06:40:21.140Z,100
2022-10-09T06:41:21.233Z,100
2022-10-09T06:42:21.131Z,100
2022-10-09T06:43:21.147Z,100
2022-10-09T06:44:21.130Z,100
2022-10-09T06:45:21.131Z,100
2022-10-09T06:46:21.178Z,100
2022-10-09T06:47:21.134Z,100
2022-10-09T06:48:21.157Z,100
2022-10-09T06:49:21.130Z,100
2022-10-09T06:50:21.150Z,100
2022-10-09T06:51:21.254Z,100
2022-10-09T06:52:21.151Z,100
2022-10-09T06:53:21.139Z,100
2022-10-09T06:54:21.118Z,100
2022-10-09T06:55:23.185Z,100
2022-10-09T06:56:21.133Z,100
2022-10-09T06:57:21.180Z,100
2022-10-09T06:58:21.128Z,100
2022-10-09T06:59:21.251Z,100
2022-10-09T07:00:21.556Z,100
2022-10-09T07:01:21.457Z,100
2022-10-09T07:02:21.589Z,100
2022-10-09T07:03:21.424Z,100
2022-10-09T07:04:21.155Z,100
2022-10-09T07:05:21.394Z,100
2022-10-09T07:06:21.272Z,100
2022-10-09T07:07:21.548Z,100
2022-10-09T07:08:21.187Z,100
2022-10-09T07:09:21.435Z,100
2022-10-09T07:10:27.181Z,100
2022-10-09T07:11:21.140Z,100
2022-10-09T07:12:21.231Z,100
2022-10-09T07:13:21.135Z,100
2022-10-09T07:14:21.179Z,100
2022-10-09T07:15:21.131Z,100
2022-10-09T07:16:21.155Z,100
2022-10-09T07:17:21.125Z,100
2022-10-09T07:18:21.120Z,100
2022-10-09T07:19:21.134Z,100
2022-10-09T07:20:21.133Z,100
2022-10-09T07:21:21.150Z,100
2022-10-09T07:22:27.320Z,100
2022-10-09T07:23:21.112Z,100
2022-10-09T07:24:21.140Z,100
2022-10-09T07:25:21.126Z,100
2022-10-09T07:26:21.385Z,100
2022-10-09T07:27:21.142Z,100
2022-10-09T07:28:21.159Z,100
2022-10-09T07:29:21.127Z,100
2022-10-09T07:30:21.126Z,100
2022-10-09T07:31:21.303Z,100
2022-10-09T07:32:21.130Z,100
2022-10-09T07:33:21.141Z,100
2022-10-09T07:34:21.140Z,100
2022-10-09T07:35:21.222Z,100
2022-10-09T07:36:21.151Z,100
2022-10-09T07:37:21.149Z,100
2022-10-09T07:38:21.130Z,100
2022-10-09T07:39:21.123Z,100
2022-10-09T07:40:21.149Z,100
2022-10-09T07:41:21.122Z,100
2022-10-09T07:42:21.133Z,100
2022-10-09T07:43:21.149Z,100
2022-10-09T07:44:21.131Z,100
2022-10-09T07:45:21.503Z,100
2022-10-09T07:46:21.823Z,100
2022-10-09T07:47:21.692Z,100
2022-10-09T07:48:22.045Z,100
2022-10-09T07:49:22.205Z,100
2022-10-09T07:50:21.632Z,100
2022-10-09T07:51:21.003Z,100
2022-10-09T07:52:22.190Z,100
2022-10-09T07:53:21.598Z,100
2022-10-09T07:54:20.978Z,100
2022-10-09T07:55:21.200Z,100
2022-10-09T07:56:21.564Z,100
2022-10-09T07:57:21.738Z,100
2022-10-09T07:58:21.170Z,100
2022-10-09T07:59:21.159Z,100
2022-10-09T08:00:21.143Z,100
2022-10-09T08:01:22.173Z,100
2022-10-09T08:02:21.192Z,100
2022-10-09T08:03:21.114Z,100
2022-10-09T08:04:21.225Z,100
2022-10-09T08:05:21.101Z,100
2022-10-09T08:06:21.129Z,100
2022-10-09T08:07:21.115Z,100
2022-10-09T08:08:21.209Z,100
2022-10-09T08:09:21.329Z,100
2022-10-09T08:10:21.117Z,100
2022-10-09T08:11:21.336Z,100
2022-10-09T08:12:21.208Z,100
2022-10-09T08:13:21.478Z,100
2022-10-09T08:14:21.111Z,100
2022-10-09T08:15:21.402Z,100
2022-10-09T08:16:21.409Z,100
2022-10-09T08:17:22.159Z,100
2022-10-09T08:18:21.273Z,100
2022-10-09T08:19:21.526Z,100
2022-10-09T08:20:21.672Z,100
2022-10-09T08:21:21.128Z,100
2022-10-09T08:22:21.131Z,100
2022-10-09T08:23:21.134Z,100
2022-10-09T08:24:21.238Z,100
2022-10-09T08:25:21.114Z,100
2022-10-09T08:26:21.139Z,100
2022-10-09T08:27:21.181Z,100
2022-10-09T08:28:21.658Z,100
2022-10-09T08:29:21.158Z,99.58
2022-10-09T08:30:21.220Z,99.45
2022-10-09T08:31:21.372Z,99.28
2022-10-09T08:32:21.111Z,98.88
2022-10-09T08:33:21.286Z,98.44
2022-10-09T08:34:21.220Z,97.62
2022-10-09T08:35:21.531Z,97.72
2022-10-09T08:36:21.833Z,98.72
2022-10-09T08:37:21.434Z,99.56
2022-10-09T08:38:45.903Z,99.04
2022-10-09T08:39:21.389Z,99
2022-10-09T08:40:21.342Z,99.15
2022-10-09T08:41:21.782Z,98.9
2022-10-09T08:42:22.078Z,98.44
2022-10-09T08:43:21.485Z,98.75
2022-10-09T08:44:21.232Z,97.22
2022-10-09T08:45:21.527Z,96.36
2022-10-09T08:46:22.434Z,96.65
2022-10-09T08:47:21.114Z,95.98
2022-10-09T08:48:21.444Z,96.8
2022-10-09T08:49:21.326Z,94.4
2022-10-09T08:50:21.145Z,92.63
2022-10-09T08:51:21.401Z,91.82
2022-10-09T08:52:21.448Z,91.18
2022-10-09T08:53:21.266Z,90.97
2022-10-09T08:54:21.137Z,89.35
2022-10-09T08:55:21.345Z,89.97
2022-10-09T08:56:21.643Z,88.65
2022-10-09T08:57:21.115Z,88.83
2022-10-09T08:58:21.234Z,87.57
2022-10-09T08:59:21.417Z,87.86
2022-10-09T09:00:21.254Z,87.65
2022-10-09T09:01:21.146Z,88.24
2022-10-09T09:02:21.208Z,88.79
2022-10-09T09:03:21.576Z,90.02
2022-10-09T09:04:21.121Z,85.83
2022-10-09T09:05:21.147Z,86.11
2022-10-09T09:06:21.137Z,86.35
2022-10-09T09:07:21.135Z,87.45
2022-10-09T09:08:21.133Z,87.41
2022-10-09T09:09:21.146Z,88.8
2022-10-09T09:10:21.131Z,89.3
2022-10-09T09:11:24.174Z,85.96
2022-10-09T09:12:21.193Z,84.29
2022-10-09T09:13:21.180Z,84.15
2022-10-09T09:14:21.144Z,85.98
2022-10-09T09:15:21.131Z,84.39
2022-10-09T09:16:21.146Z,82.99
2022-10-09T09:17:21.132Z,82.61
2022-10-09T09:18:21.126Z,82.46
2022-10-09T09:19:21.159Z,82.62
2022-10-09T09:20:21.147Z,80.86
2022-10-09T09:21:21.144Z,81.47
2022-10-09T09:22:21.126Z,79.4
2022-10-09T09:23:21.134Z,79.77
2022-10-09T09:24:21.238Z,79.98
2022-10-09T09:25:21.129Z,79.92
2022-10-09T09:26:21.119Z,79.51
2022-10-09T09:27:21.128Z,79.46
2022-10-09T09:28:21.184Z,79.18
2022-10-09T09:29:21.159Z,78.69
2022-10-09T09:30:21.165Z,79.16
2022-10-09T09:31:21.205Z,78.81
2022-10-09T09:32:21.189Z,77.8
2022-10-09T09:33:21.158Z,78.14
2022-10-09T09:34:21.179Z,77.26
2022-10-09T09:35:21.144Z,76.27
2022-10-09T09:36:21.124Z,74.21
2022-10-09T09:37:21.124Z,72.4
2022-10-09T09:38:21.120Z,74.3
2022-10-09T09:40:34.730Z,75.05
2022-10-09T09:40:37.902Z,73
2022-10-09T09:41:21.134Z,73.29
2022-10-09T09:42:21.113Z,71.31
2022-10-09T09:43:21.158Z,66.12
2022-10-09T09:44:21.130Z,68.43
2022-10-09T09:45:21.138Z,67.38
2022-10-09T09:46:21.209Z,65.12
2022-10-09T09:47:21.300Z,63.57
2022-10-09T09:48:21.144Z,59.07
2022-10-09T09:49:21.133Z,56.92
2022-10-09T09:50:45.926Z,57.6
2022-10-09T09:51:28.769Z,58.13
2022-10-09T09:52:21.129Z,56.13
2022-10-09T09:53:21.166Z,54.17
2022-10-09T09:54:21.136Z,51.48
2022-10-09T09:55:21.143Z,52.35
2022-10-09T09:56:21.155Z,53.19
2022-10-09T09:57:24.128Z,53.72
2022-10-09T09:58:21.300Z,53.54
2022-10-09T09:59:21.155Z,54.55
2022-10-09T10:00:21.130Z,54.35
2022-10-09T10:01:21.204Z,54.64
2022-10-09T10:02:21.192Z,51.38
2022-10-09T10:03:21.124Z,50.75
2022-10-09T10:04:21.121Z,51.34
2022-10-09T10:05:21.122Z,50.84
2022-10-09T10:06:21.134Z,51.84
2022-10-09T10:07:21.138Z,51.62
2022-10-09T10:08:21.114Z,52.67
2022-10-09T10:09:21.140Z,51.73
2022-10-09T10:10:27.192Z,51.37
2022-10-09T10:11:21.122Z,51.54
2022-10-09T10:12:21.193Z,52.23
2022-10-09T10:13:21.201Z,50.76
2022-10-09T10:14:21.524Z,49.6
2022-10-09T10:15:21.111Z,49.83
2022-10-09T10:16:21.427Z,52
2022-10-09T10:17:21.344Z,51.49
2022-10-09T10:18:21.129Z,50.73
2022-10-09T10:19:21.237Z,48.75
2022-10-09T10:20:21.456Z,48.92
2022-10-09T10:21:21.144Z,48.06
2022-10-09T10:22:21.156Z,48.66
2022-10-09T10:23:21.401Z,48.34
2022-10-09T10:24:21.134Z,48.68
2022-10-09T10:25:21.120Z,50.31
2022-10-09T10:26:21.143Z,50.43
2022-10-09T10:27:21.125Z,49.97
2022-10-09T10:28:21.146Z,49.73
2022-10-09T10:29:21.147Z,49.23
2022-10-09T10:30:21.134Z,49.02
2022-10-09T10:31:21.152Z,48.82
2022-10-09T10:32:21.198Z,47.25
2022-10-09T10:33:21.134Z,47.78
2022-10-09T10:34:21.128Z,47.32
2022-10-09T10:35:21.142Z,46.71
2022-10-09T10:36:21.118Z,47.16
2022-10-09T10:37:21.127Z,46.2
2022-10-09T10:38:21.121Z,47.3
2022-10-09T10:39:21.143Z,46.79
2022-10-09T10:40:21.139Z,46.25
2022-10-09T10:41:21.265Z,45.73
2022-10-09T10:42:21.135Z,47.18
2022-10-09T10:43:21.135Z,46.66
2022-10-09T10:44:21.125Z,45.94
2022-10-09T10:45:21.123Z,45.94
2022-10-09T10:46:21.215Z,46.92
2022-10-09T10:47:21.140Z,47.93
2022-10-09T10:48:21.126Z,48.31
2022-10-09T10:49:21.127Z,47.78
2022-10-09T10:50:21.136Z,49.31
2022-10-09T10:51:21.135Z,49.23
2022-10-09T10:52:21.120Z,48
2022-10-09T10:53:21.141Z,48.05
2022-10-09T10:54:21.131Z,48.2
2022-10-09T10:55:21.131Z,47.37
2022-10-09T10:56:21.150Z,46.87
2022-10-09T10:57:21.142Z,46.64
2022-10-09T10:58:22.121Z,47.66
2022-10-09T10:59:21.164Z,47.27
2022-10-09T11:00:21.122Z,47.17
2022-10-09T11:01:21.188Z,45.13
2022-10-09T11:02:21.134Z,46.05
2022-10-09T11:03:21.242Z,46
2022-10-09T11:04:21.138Z,45.45
2022-10-09T11:05:21.133Z,46.3
2022-10-09T11:06:21.142Z,45.41
2022-10-09T11:07:21.143Z,46.21
2022-10-09T11:08:21.126Z,44.48
2022-10-09T11:09:21.119Z,45.54
2022-10-09T11:10:21.234Z,45.51
2022-10-09T11:11:21.125Z,45.22
2022-10-09T11:12:43.672Z,45.7
2022-10-09T11:13:21.589Z,44.36
2022-10-09T11:14:22.574Z,43.54
2022-10-09T11:15:21.910Z,44.38
2022-10-09T11:16:22.000Z,43.9
2022-10-09T11:17:21.893Z,43.68
2022-10-09T11:18:22.273Z,44.74
2022-10-09T11:19:21.514Z,43.53
2022-10-09T11:20:21.978Z,44.03
2022-10-09T11:21:22.280Z,43.53
2022-10-09T11:22:21.717Z,44.41
2022-10-09T11:23:22.030Z,41.97
2022-10-09T11:24:22.176Z,43.15
2022-10-09T11:25:22.595Z,43.11
2022-10-09T11:26:21.226Z,43.21
2022-10-09T11:27:21.154Z,42.3
2022-10-09T11:28:21.246Z,43.14
2022-10-09T11:29:21.124Z,42.41
2022-10-09T11:30:21.249Z,43.55
2022-10-09T11:31:21.172Z,41.77
2022-10-09T11:32:21.132Z,43.26
2022-10-09T11:33:21.142Z,42.86
2022-10-09T11:34:21.141Z,42.4
2022-10-09T11:35:21.126Z,42.57
2022-10-09T11:36:21.150Z,43.26
2022-10-09T11:37:21.205Z,43.33
2022-10-09T11:38:21.145Z,43.29
2022-10-09T11:39:21.231Z,44.74
2022-10-09T11:40:21.118Z,45.77
2022-10-09T11:41:21.339Z,44.04
2022-10-09T11:42:21.091Z,43.08
2022-10-09T11:43:21.097Z,43.92
2022-10-09T11:44:21.226Z,43.55
2022-10-09T11:45:21.510Z,44.61
2022-10-09T11:46:21.299Z,43
2022-10-09T11:47:21.257Z,43.88
2022-10-09T11:48:21.563Z,43.35
2022-10-09T11:49:21.084Z,44.46
2022-10-09T11:50:21.374Z,43.41
2022-10-09T11:51:21.190Z,43.51
2022-10-09T11:52:21.454Z,43.24
2022-10-09T11:53:21.182Z,42.99
2022-10-09T11:54:21.479Z,42.64
2022-10-09T11:55:21.804Z,42.24
2022-10-09T11:56:21.643Z,40.69
2022-10-09T11:57:21.964Z,41.29
2022-10-09T11:58:22.695Z,41.39
2022-10-09T11:59:22.574Z,41.62
2022-10-09T12:00:22.561Z,42.51
2022-10-09T12:01:21.596Z,41.78
2022-10-09T12:02:21.295Z,42.62
2022-10-09T12:03:21.448Z,43.44
2022-10-09T12:04:37.648Z,43.44
2022-10-09T12:05:21.153Z,42.1
2022-10-09T12:06:21.231Z,42.35
2022-10-09T12:07:21.441Z,42.81
2022-10-09T12:08:21.568Z,41.85
2022-10-09T12:09:21.147Z,41.42
2022-10-09T12:10:21.287Z,40.52
2022-10-09T12:11:21.449Z,40.44
2022-10-09T12:12:21.133Z,40.88
2022-10-09T12:13:21.131Z,41.41
2022-10-09T12:14:22.375Z,41.77
2022-10-09T12:15:21.139Z,44.19
2022-10-09T12:16:21.161Z,41.59
2022-10-09T12:17:21.134Z,42.71
2022-10-09T12:18:21.271Z,41.58
2022-10-09T12:19:21.129Z,43.17
2022-10-09T12:20:21.146Z,43.97
2022-10-09T12:21:21.353Z,44.2
2022-10-09T12:22:21.147Z,42.87
2022-10-09T12:23:27.993Z,43.59
2022-10-09T12:24:21.125Z,42.88
2022-10-09T12:25:21.181Z,43.64
2022-10-09T12:26:21.136Z,42.19
2022-10-09T12:27:21.166Z,43.18
2022-10-09T12:28:21.202Z,42.88
2022-10-09T12:29:21.139Z,41.24
2022-10-09T12:30:21.129Z,40.78
2022-10-09T12:31:21.229Z,39.55
2022-10-09T12:32:21.186Z,39.02
2022-10-09T12:33:21.131Z,39.04
2022-10-09T12:34:21.124Z,40.68
2022-10-09T12:35:21.129Z,39.72
2022-10-09T12:36:21.122Z,39.66
2022-10-09T12:37:21.146Z,38.64
2022-10-09T12:38:21.152Z,39.05
2022-10-09T12:39:21.146Z,38.12
2022-10-09T12:40:21.141Z,38.62
2022-10-09T12:41:22.224Z,38.25
2022-10-09T12:42:21.300Z,36.08
2022-10-09T12:43:21.137Z,36.76
2022-10-09T12:44:21.131Z,36.52
2022-10-09T12:45:21.124Z,37.42
2022-10-09T12:46:21.160Z,37.47
2022-10-09T12:47:21.126Z,37.16
2022-10-09T12:48:21.134Z,37.37
2022-10-09T12:49:21.124Z,36.7
2022-10-09T12:50:21.126Z,37.19
2022-10-09T12:51:21.127Z,37.17
2022-10-09T12:52:21.137Z,37.75
2022-10-09T12:53:21.231Z,38.01
2022-10-09T12:54:21.147Z,36.74
2022-10-09T12:55:21.223Z,36.97
2022-10-09T12:56:21.136Z,36.75
2022-10-09T12:57:27.913Z,35.41
2022-10-09T12:58:21.133Z,36.78
2022-10-09T12:59:21.143Z,37.77
2022-10-09T13:00:21.143Z,37.47
2022-10-09T13:01:21.258Z,37.24
2022-10-09T13:02:21.236Z,38.46
2022-10-09T13:03:21.128Z,39.52
2022-10-09T13:04:21.200Z,38.54
2022-10-09T13:05:21.134Z,39.14
2022-10-09T13:06:21.142Z,38.62
2022-10-09T13:07:21.131Z,38.61
2022-10-09T13:08:21.133Z,38.71
2022-10-09T13:09:21.128Z,36.87
2022-10-09T13:10:21.129Z,37.07
2022-10-09T13:11:21.125Z,37.59
2022-10-09T13:12:21.134Z,36.65
2022-10-09T13:13:21.137Z,36.35
2022-10-09T13:14:21.204Z,36.8
2022-10-09T13:15:21.136Z,35.79
2022-10-09T13:16:21.166Z,36.23
2022-10-09T13:17:21.184Z,37.02
2022-10-09T13:18:21.124Z,37.26
2022-10-09T13:19:21.132Z,37.98
2022-10-09T13:20:21.125Z,36.95
2022-10-09T13:21:21.129Z,36.64
2022-10-09T13:22:21.119Z,35.86
2022-10-09T13:23:21.114Z,35.65
2022-10-09T13:24:21.142Z,36.04
2022-10-09T13:25:21.114Z,36.16
2022-10-09T13:26:21.110Z,36.49